Buffalo, WY (82834)

9:08 AM MST on December 08, 2016 (GMT -0700)
Buffalo | | Change Station

Elev 4708 ft 44.34 °N, 106.70 °W | Updated 8 seconds ago

Clear
Clear
9.1 °F
Feels Like 9 °F
N
0.0
Wind Variable Wind from WSW
Gusts 0.0 mph

Today
High -- | Low -- °F
--% Chance of Precip.
Yesterday
High -- | Low -- °F
Precip. -- in
Pressure 30.69 in
Visibility 10.0 miles
Clouds Clear
Windchill 9 °F
Dew Point 1 °F
Humidity 68%
Rainfall 0.00 in
Snow Depth Not available.
7:30 AM 4:27 PM
Waxing Gibbous, 64% visible
METAR KBYG 081553Z AUTO 16005KT 10SM CLR M17/M24 A3038 RMK AO2 SLP393 T11721239
Pressure 30.69 in
Visibility 10.0 miles
Clouds Clear
Windchill 9 °F
Dew Point 1 °F
Humidity 68%
Rainfall 0.00 in
Snow Depth Not available.
7:30 AM 4:27 PM
Waxing Gibbous, 64% visible
METAR KBYG 081553Z AUTO 16005KT 10SM CLR M17/M24 A3038 RMK AO2 SLP393 T11721239

10-Day Weather Forecast

Almanac

Astronomy

Dec. 08, 2016 Rise Set
Actual Time
Civil Twilight
Nautical Twilight
Astronomical Twilight
Moon
Length of Visible Light
Length of Day
Tomorrow will be .
, % of the Moon is Illuminated

Today's Extremes

State Highs State Lows

Community

WunderPhotos

Upload Photos

1,956,274 photos uploaded!

WunderBlog® & News

Nearby

Air Quality

  Air Quality AQ Index Pollutant
Not available.

Snow Depth

Station Depth Elevation

Earthquake Activity

City Distance Mag. Time & Date
Minimum magnitude displayed is 2.5.

Coastal Water Temperatures

Place Temperature

Stations

Nearby Weather Stations

Station Location Temp. Windchill Dew Point Humidity Wind Precip. Elev Updated Type
                   

Watches & Warnings

There are currently no watches in effect.